createdAt,value
2018-12-07T00:04:01.847Z,76.70
2018-12-07T00:06:30.695Z,77.30
2018-12-07T00:08:58.980Z,77.50
2018-12-07T00:11:27.465Z,77.10
2018-12-07T00:13:55.829Z,77.70
2018-12-07T00:16:24.271Z,77.80
2018-12-07T00:18:52.794Z,77.30
2018-12-07T00:21:21.792Z,77.90
2018-12-07T00:23:50.101Z,78.00
2018-12-07T00:26:18.655Z,78.70
2018-12-07T00:28:46.941Z,78.40
2018-12-07T00:31:15.305Z,79.20
2018-12-07T00:33:43.863Z,78.40
2018-12-07T00:36:12.448Z,78.50
2018-12-07T00:38:40.686Z,78.50
2018-12-07T00:41:09.026Z,78.60
2018-12-07T00:43:37.541Z,79.00
2018-12-07T00:46:06.111Z,77.90
2018-12-07T00:48:34.675Z,78.50
2018-12-07T00:51:03.436Z,78.00
2018-12-07T00:53:31.841Z,78.00
2018-12-07T00:56:00.249Z,78.00
2018-12-07T00:58:30.267Z,78.70
2018-12-07T01:00:58.588Z,78.30
2018-12-07T01:03:27.230Z,78.10
2018-12-07T01:05:55.729Z,77.80
2018-12-07T01:08:24.389Z,78.10
2018-12-07T01:10:52.715Z,77.60
2018-12-07T01:13:21.002Z,78.10
2018-12-07T01:15:49.708Z,78.30
2018-12-07T01:18:18.138Z,78.30
2018-12-07T01:20:46.442Z,78.10
2018-12-07T01:23:14.774Z,77.70
2018-12-07T01:25:43.228Z,77.60
2018-12-07T01:28:11.579Z,77.70
2018-12-07T01:30:39.958Z,78.20
2018-12-07T01:35:47.879Z,77.70
2018-12-07T01:38:16.259Z,77.60
2018-12-07T01:40:44.736Z,77.60
2018-12-07T01:43:13.071Z,77.30
2018-12-07T01:45:42.071Z,77.10
2018-12-07T01:48:10.357Z,77.60
2018-12-07T01:50:38.678Z,77.00
2018-12-07T01:53:07.115Z,77.00
2018-12-07T01:58:14.453Z,77.00
2018-12-07T02:00:43.261Z,77.00
2018-12-07T02:03:12.149Z,77.00
2018-12-07T02:05:40.909Z,77.00
2018-12-07T02:08:09.546Z,77.60
2018-12-07T02:10:38.036Z,77.00
2018-12-07T02:13:06.557Z,77.60
2018-12-07T02:15:34.992Z,76.80
2018-12-07T02:18:04.566Z,77.30
2018-12-07T02:20:33.267Z,77.30
2018-12-07T02:23:02.290Z,77.10
2018-12-07T02:25:30.970Z,76.90
2018-12-07T02:28:00.125Z,76.90
2018-12-07T02:30:29.007Z,76.40
2018-12-07T02:32:58.000Z,76.30
2018-12-07T02:35:26.327Z,76.10
2018-12-07T02:37:55.085Z,76.60
2018-12-07T02:40:24.056Z,77.10
2018-12-07T02:42:52.599Z,76.60
2018-12-07T02:47:49.334Z,76.00
2018-12-07T02:50:18.490Z,76.20
2018-12-07T02:55:16.520Z,76.30
2018-12-07T02:57:45.318Z,76.80
2018-12-07T03:00:13.701Z,77.10
2018-12-07T03:02:42.390Z,77.70
2018-12-07T03:05:11.007Z,76.90
2018-12-07T03:07:40.740Z,77.50
2018-12-07T03:10:09.123Z,77.00
2018-12-07T03:12:37.596Z,77.50
2018-12-07T03:17:34.529Z,77.10
2018-12-07T03:20:03.086Z,77.10
2018-12-07T03:22:31.593Z,77.10
2018-12-07T03:25:00.149Z,77.40
2018-12-07T03:27:28.439Z,77.40
2018-12-07T03:34:53.243Z,77.10
2018-12-07T03:37:21.838Z,77.10
2018-12-07T03:42:18.838Z,77.10
2018-12-07T03:44:47.942Z,76.90
2018-12-07T03:47:16.288Z,77.20
2018-12-07T03:49:45.085Z,76.50
2018-12-07T03:52:13.739Z,76.50
2018-12-07T03:54:42.759Z,76.30
2018-12-07T03:57:11.858Z,76.60
2018-12-07T03:59:40.454Z,76.30
2018-12-07T04:02:08.997Z,76.20
2018-12-07T04:04:37.647Z,76.30
2018-12-07T04:07:05.959Z,77.00
2018-12-07T04:09:34.333Z,77.00
2018-12-07T04:12:02.867Z,77.00
2018-12-07T04:14:31.582Z,77.20
2018-12-07T04:17:00.019Z,77.20
2018-12-07T04:19:28.462Z,77.10
2018-12-07T04:24:25.035Z,76.80
2018-12-07T04:26:53.705Z,77.00
2018-12-07T04:29:21.990Z,77.10
2018-12-07T04:34:19.299Z,77.00
2018-12-07T04:36:47.902Z,77.10
2018-12-07T04:39:16.446Z,77.20
2018-12-07T04:41:44.793Z,77.00
2018-12-07T04:44:13.155Z,77.10
2018-12-07T04:51:38.594Z,76.80
2018-12-07T04:54:06.917Z,76.40
2018-12-07T04:56:35.214Z,76.40
2018-12-07T05:01:31.891Z,76.20
2018-12-07T05:04:00.206Z,76.10
2018-12-07T05:06:31.226Z,76.70
2018-12-07T05:09:00.206Z,76.30
2018-12-07T05:11:29.915Z,76.00
2018-12-07T05:13:58.267Z,76.10
2018-12-07T05:16:26.623Z,76.00
2018-12-07T05:18:54.974Z,76.00
2018-12-07T05:21:23.710Z,76.50
2018-12-07T05:23:52.471Z,75.80
2018-12-07T05:26:21.103Z,76.20
2018-12-07T05:28:49.423Z,76.20
2018-12-07T05:31:18.072Z,75.60
2018-12-07T05:33:46.647Z,75.90
2018-12-07T05:36:14.975Z,76.50
2018-12-07T05:38:43.361Z,75.50
2018-12-07T05:44:12.299Z,75.30
2018-12-07T05:46:40.715Z,75.90
2018-12-07T05:49:09.079Z,75.50
2018-12-07T05:51:38.496Z,75.60
2018-12-07T05:54:07.848Z,75.70
2018-12-07T05:56:37.607Z,74.80
2018-12-07T05:59:06.193Z,75.20
2018-12-07T06:04:03.585Z,75.20
2018-12-07T06:06:31.910Z,75.90
2018-12-07T06:09:00.235Z,75.80
2018-12-07T06:21:54.950Z,74.70
2018-12-07T06:24:23.500Z,75.50
2018-12-07T06:26:53.658Z,75.50
2018-12-07T06:29:22.295Z,75.30
2018-12-07T06:31:50.603Z,75.90
2018-12-07T06:34:19.243Z,75.00
2018-12-07T06:36:47.637Z,74.70
2018-12-07T06:39:16.569Z,74.50
2018-12-07T06:41:44.877Z,75.20
2018-12-07T06:44:13.505Z,74.90
2018-12-07T06:46:43.554Z,75.40
2018-12-07T06:49:13.194Z,74.70
2018-12-07T06:51:43.707Z,75.20
2018-12-07T06:54:12.278Z,74.70
2018-12-07T06:56:40.601Z,74.30
2018-12-07T07:01:39.085Z,74.30
2018-12-07T07:04:07.757Z,74.70
2018-12-07T07:06:36.462Z,73.70
2018-12-07T07:09:09.382Z,74.30
2018-12-07T07:11:37.831Z,74.00
2018-12-07T07:14:06.992Z,73.80
2018-12-07T07:16:36.175Z,74.20
2018-12-07T07:19:04.776Z,74.80
2018-12-07T07:21:33.314Z,73.90
2018-12-07T07:24:02.225Z,74.50
2018-12-07T07:26:30.522Z,74.60
2018-12-07T07:28:59.148Z,73.80
2018-12-07T07:31:27.633Z,73.70
2018-12-07T07:33:56.301Z,73.50
2018-12-07T07:36:24.782Z,73.60
2018-12-07T07:38:53.186Z,74.20
2018-12-07T07:41:21.606Z,74.30
2018-12-07T07:43:50.180Z,74.30
2018-12-07T07:46:18.530Z,73.40
2018-12-07T07:48:47.088Z,74.00
2018-12-07T07:51:15.374Z,71.90
2018-12-07T07:53:43.849Z,72.70
2018-12-07T07:56:15.458Z,73.40
2018-12-07T07:58:42.922Z,73.70
2018-12-07T08:01:11.310Z,73.10
2018-12-07T08:03:40.406Z,71.90
2018-12-07T08:06:08.873Z,72.50
2018-12-07T08:08:37.301Z,72.70
2018-12-07T08:11:05.588Z,72.00
2018-12-07T08:13:33.888Z,71.10
2018-12-07T08:16:02.239Z,71.60
2018-12-07T08:18:30.543Z,71.80
2018-12-07T08:21:04.807Z,70.30
2018-12-07T08:23:33.282Z,70.70
2018-12-07T08:26:02.006Z,71.80
2018-12-07T08:28:30.315Z,69.90
2018-12-07T08:30:58.633Z,71.20
2018-12-07T08:33:28.344Z,68.40
2018-12-07T08:35:56.722Z,68.80
2018-12-07T08:38:26.003Z,68.10
2018-12-07T08:40:54.330Z,65.70
2018-12-07T08:43:22.603Z,64.50
2018-12-07T08:45:51.369Z,63.30
2018-12-07T08:48:19.840Z,63.10
2018-12-07T08:50:48.183Z,62.70
2018-12-07T08:53:16.555Z,62.30
2018-12-07T08:55:46.532Z,61.40
2018-12-07T08:58:15.183Z,61.90
2018-12-07T09:00:43.846Z,61.60
2018-12-07T09:03:12.201Z,61.10
2018-12-07T09:05:40.586Z,61.70
2018-12-07T09:13:07.894Z,61.00
2018-12-07T09:15:36.241Z,61.60
2018-12-07T09:18:05.013Z,60.70
2018-12-07T09:20:33.854Z,60.50
2018-12-07T09:23:02.573Z,60.50
2018-12-07T09:28:10.498Z,60.10
2018-12-07T09:30:38.795Z,60.00
2018-12-07T09:33:07.107Z,60.30
2018-12-07T09:35:35.410Z,60.90
2018-12-07T09:38:03.692Z,59.90
2018-12-07T09:40:31.989Z,59.80
2018-12-07T09:43:01.067Z,60.00
2018-12-07T09:45:29.343Z,59.90
2018-12-07T09:47:57.688Z,60.00
2018-12-07T09:50:26.002Z,60.50
2018-12-07T09:52:54.308Z,60.00
2018-12-07T10:00:19.221Z,60.10
2018-12-07T10:02:47.728Z,59.90
2018-12-07T10:05:16.619Z,60.50
2018-12-07T10:07:45.442Z,61.00
2018-12-07T10:10:13.722Z,60.60
2018-12-07T10:12:42.410Z,60.20
2018-12-07T10:15:10.719Z,60.80
2018-12-07T10:17:39.063Z,61.10
2018-12-07T10:20:07.870Z,60.70
2018-12-07T10:22:37.919Z,61.70
2018-12-07T10:25:06.546Z,60.90
2018-12-07T10:27:34.820Z,60.50
2018-12-07T10:30:03.821Z,60.40
2018-12-07T10:32:32.471Z,61.00
2018-12-07T10:35:01.391Z,60.20
2018-12-07T10:37:30.183Z,60.70
2018-12-07T10:39:58.629Z,60.30
2018-12-07T10:42:27.033Z,60.40
2018-12-07T10:44:55.362Z,60.80
2018-12-07T10:47:24.205Z,59.80
2018-12-07T10:49:52.786Z,60.20
2018-12-07T10:52:21.736Z,60.00
2018-12-07T10:54:50.081Z,59.80
2018-12-07T10:57:18.658Z,59.40
2018-12-07T10:59:47.027Z,58.90
2018-12-07T11:02:21.095Z,59.50
2018-12-07T11:04:56.062Z,57.70
2018-12-07T11:07:30.139Z,58.40
2018-12-07T11:10:04.147Z,58.40
2018-12-07T11:12:38.089Z,58.10
2018-12-07T11:15:12.154Z,58.40
2018-12-07T11:18:50.285Z,56.90
2018-12-07T11:21:24.347Z,57.40
2018-12-07T11:27:53.021Z,57.30
2018-12-07T11:34:06.193Z,57.00
2018-12-07T11:36:34.537Z,57.30
2018-12-07T11:39:05.139Z,57.60
2018-12-07T11:41:33.897Z,58.10
2018-12-07T11:44:04.954Z,58.30
2018-12-07T11:46:33.567Z,57.50
2018-12-07T11:49:02.489Z,57.40
2018-12-07T11:51:31.061Z,57.80
2018-12-07T11:53:59.664Z,57.50
2018-12-07T11:56:27.968Z,57.70
2018-12-07T11:58:56.298Z,58.10
2018-12-07T12:01:25.063Z,57.50
2018-12-07T12:03:53.366Z,58.00
2018-12-07T12:06:21.977Z,58.40
2018-12-07T12:08:50.885Z,58.70
2018-12-07T12:11:21.237Z,58.30
2018-12-07T12:13:50.763Z,58.30
2018-12-07T12:16:19.064Z,58.10
2018-12-07T12:18:47.598Z,58.20
2018-12-07T12:21:16.205Z,57.80
2018-12-07T12:23:44.518Z,58.20
2018-12-07T12:26:12.795Z,57.50
2018-12-07T12:28:41.359Z,58.00
2018-12-07T12:31:09.817Z,57.60
2018-12-07T12:33:38.140Z,58.10
2018-12-07T12:36:06.823Z,57.90
2018-12-07T12:38:35.175Z,57.90
2018-12-07T12:41:03.646Z,58.30
2018-12-07T12:43:32.027Z,58.30
2018-12-07T12:46:00.492Z,57.90
2018-12-07T12:48:28.921Z,58.20
2018-12-07T12:50:59.176Z,58.90
2018-12-07T12:53:28.651Z,57.50
2018-12-07T12:55:57.115Z,59.20
2018-12-07T12:58:25.557Z,57.80
2018-12-07T13:00:53.941Z,57.70
2018-12-07T13:03:22.306Z,58.00
2018-12-07T13:05:50.644Z,58.00
2018-12-07T13:08:19.360Z,58.00
2018-12-07T13:10:47.930Z,57.60
2018-12-07T13:13:16.398Z,58.20
2018-12-07T13:15:44.990Z,59.60
2018-12-07T13:18:14.219Z,60.00
2018-12-07T13:20:42.690Z,60.30
2018-12-07T13:23:11.617Z,62.00
2018-12-07T13:25:39.869Z,62.40
2018-12-07T13:28:09.021Z,62.30
2018-12-07T13:30:37.369Z,61.90
2018-12-07T13:33:05.755Z,62.60
2018-12-07T13:35:35.065Z,63.20
2018-12-07T13:38:03.772Z,63.50
2018-12-07T13:40:32.630Z,63.70
2018-12-07T13:43:01.765Z,63.80
2018-12-07T13:45:30.778Z,63.90
2018-12-07T13:53:03.315Z,64.20
2018-12-07T13:55:31.869Z,64.60
2018-12-07T13:58:03.427Z,63.30
2018-12-07T14:00:31.948Z,63.80
2018-12-07T14:03:01.437Z,63.30
2018-12-07T14:05:32.300Z,63.70
2018-12-07T14:08:00.690Z,63.80
2018-12-07T14:10:29.067Z,62.70
2018-12-07T14:12:58.855Z,62.70
2018-12-07T14:15:27.214Z,63.00
2018-12-07T14:17:55.826Z,61.40
2018-12-07T14:20:24.313Z,60.80
2018-12-07T14:22:52.922Z,60.20
2018-12-07T14:29:05.159Z,60.50
2018-12-07T14:31:34.584Z,60.50
2018-12-07T14:34:04.295Z,61.10
2018-12-07T14:36:32.782Z,60.40
2018-12-07T14:39:02.318Z,60.40
2018-12-07T14:41:31.811Z,60.40
2018-12-07T14:44:00.537Z,59.20
2018-12-07T14:48:58.226Z,59.50
2018-12-07T14:51:26.881Z,59.50
2018-12-07T14:53:55.302Z,59.00
2018-12-07T14:56:23.758Z,59.00
2018-12-07T14:58:52.330Z,59.40
2018-12-07T15:01:20.728Z,58.40
2018-12-07T15:03:49.774Z,58.60
2018-12-07T15:06:19.494Z,59.10
2018-12-07T15:08:48.353Z,58.20
2018-12-07T15:11:16.731Z,58.10
2018-12-07T15:13:45.224Z,57.50
2018-12-07T15:16:13.585Z,57.60
2018-12-07T15:18:42.264Z,57.20
2018-12-07T15:21:10.926Z,57.40
2018-12-07T15:23:39.885Z,57.10
2018-12-07T15:28:37.306Z,56.70
2018-12-07T15:31:05.655Z,56.40
2018-12-07T15:36:02.694Z,56.00
2018-12-07T15:38:31.064Z,56.40
2018-12-07T15:41:00.702Z,56.40
2018-12-07T15:45:58.719Z,55.70
2018-12-07T15:50:57.177Z,55.90
2018-12-07T15:53:25.661Z,56.20
2018-12-07T15:55:54.478Z,56.80
2018-12-07T15:58:22.943Z,56.30
2018-12-07T16:00:52.865Z,56.20
2018-12-07T16:03:22.713Z,56.00
2018-12-07T16:05:51.108Z,56.60
2018-12-07T16:08:24.980Z,56.40
2018-12-07T16:10:50.492Z,57.10
2018-12-07T16:13:19.421Z,57.40
2018-12-07T16:15:48.071Z,57.50
2018-12-07T16:20:45.090Z,56.90
2018-12-07T16:23:13.605Z,56.80
2018-12-07T16:25:43.198Z,56.70
2018-12-07T16:28:11.822Z,56.70
2018-12-07T16:30:41.250Z,56.40
2018-12-07T16:33:10.565Z,56.20
2018-12-07T16:35:38.974Z,56.00
2018-12-07T16:38:08.217Z,56.30
2018-12-07T16:43:05.812Z,55.80
2018-12-07T16:50:34.435Z,55.80
2018-12-07T16:53:03.665Z,55.90
2018-12-07T16:55:32.229Z,56.40
2018-12-07T16:58:00.841Z,55.50
2018-12-07T17:02:58.434Z,56.10
2018-12-07T17:05:27.574Z,55.80
2018-12-07T17:10:35.898Z,56.00
2018-12-07T17:13:06.993Z,55.90
2018-12-07T17:15:37.837Z,56.10
2018-12-07T17:18:08.329Z,56.20
2018-12-07T17:20:36.989Z,56.20
2018-12-07T17:23:05.430Z,56.00
2018-12-07T17:30:33.485Z,55.70
2018-12-07T17:33:02.778Z,55.40
2018-12-07T17:35:31.935Z,55.90
2018-12-07T17:38:00.666Z,55.10
2018-12-07T17:40:30.163Z,55.10
2018-12-07T17:45:27.611Z,55.10
2018-12-07T17:47:56.513Z,55.10
2018-12-07T17:50:25.519Z,55.20
2018-12-07T17:52:54.191Z,55.10
2018-12-07T17:55:24.798Z,55.80
2018-12-07T17:57:53.981Z,56.70
2018-12-07T18:00:23.426Z,56.90
2018-12-07T18:02:52.365Z,56.90
2018-12-07T18:05:20.875Z,57.00
2018-12-07T18:07:49.739Z,57.10
2018-12-07T18:10:18.841Z,57.00
2018-12-07T18:12:47.601Z,56.70
2018-12-07T18:15:16.902Z,57.30
2018-12-07T18:17:47.094Z,57.70
2018-12-07T18:20:16.343Z,58.10
2018-12-07T18:22:45.520Z,57.90
2018-12-07T18:25:14.009Z,58.50
2018-12-07T18:27:43.115Z,57.90
2018-12-07T18:30:11.681Z,57.90
2018-12-07T18:32:40.476Z,57.20
2018-12-07T18:35:09.133Z,58.10
2018-12-07T18:37:37.660Z,58.30
2018-12-07T18:42:35.394Z,58.10
2018-12-07T18:45:04.759Z,59.30
2018-12-07T18:47:33.786Z,59.40
2018-12-07T18:50:03.151Z,59.70
2018-12-07T18:52:32.596Z,59.70
2018-12-07T18:55:01.622Z,59.70
2018-12-07T18:57:31.690Z,59.90
2018-12-07T19:00:02.770Z,60.20
2018-12-07T19:02:31.470Z,60.50
2018-12-07T19:05:00.329Z,61.10
2018-12-07T19:07:30.535Z,61.60
2018-12-07T19:09:59.429Z,61.70
2018-12-07T19:12:28.565Z,61.90
2018-12-07T19:17:27.175Z,62.60
2018-12-07T19:19:55.587Z,62.70
2018-12-07T19:22:24.376Z,62.70
2018-12-07T19:27:23.871Z,63.10
2018-12-07T19:29:53.327Z,63.90
2018-12-07T19:34:50.486Z,64.30
2018-12-07T19:37:19.540Z,64.50
2018-12-07T19:39:48.005Z,64.90
2018-12-07T19:42:17.355Z,65.50
2018-12-07T19:44:47.035Z,65.00
2018-12-07T19:47:15.529Z,65.60
2018-12-07T19:49:44.131Z,65.00
2018-12-07T19:52:13.032Z,65.50
2018-12-07T19:54:42.137Z,65.30
2018-12-07T19:57:11.010Z,65.60
2018-12-07T19:59:41.007Z,66.10
2018-12-07T20:02:10.098Z,66.40
2018-12-07T20:04:39.036Z,66.70
2018-12-07T20:07:08.312Z,67.20
2018-12-07T20:09:37.346Z,67.10
2018-12-07T20:17:04.297Z,68.20
2018-12-07T20:19:33.502Z,68.50
2018-12-07T20:24:31.124Z,71.00
2018-12-07T20:29:27.904Z,72.10
2018-12-07T20:31:57.102Z,74.70
2018-12-07T20:36:55.586Z,73.20
2018-12-07T20:39:24.548Z,73.00
2018-12-07T20:41:53.071Z,74.20
2018-12-07T20:44:21.880Z,73.30
2018-12-07T20:46:50.650Z,74.20
2018-12-07T20:49:20.339Z,72.80
2018-12-07T20:51:48.860Z,73.40
2018-12-07T20:54:18.642Z,72.40
2018-12-07T20:59:16.486Z,71.80
2018-12-07T21:01:51.644Z,73.30
2018-12-07T21:04:29.302Z,72.00
2018-12-07T21:08:12.755Z,72.40
2018-12-07T21:10:58.478Z,70.80
2018-12-07T21:13:53.599Z,71.30
2018-12-07T21:17:14.344Z,72.30
2018-12-07T21:20:09.444Z,71.50
2018-12-07T21:22:38.165Z,69.70
2018-12-07T21:25:06.711Z,70.20
2018-12-07T21:27:36.476Z,70.10
2018-12-07T21:30:38.028Z,69.80
2018-12-07T21:33:06.710Z,70.40
2018-12-07T21:36:58.998Z,70.80
2018-12-07T21:40:36.754Z,69.60
2018-12-07T21:43:06.026Z,69.50
2018-12-07T21:45:35.005Z,70.10
2018-12-07T21:48:22.139Z,70.40
2018-12-07T21:52:14.426Z,71.00
2018-12-07T21:54:43.279Z,70.20
2018-12-07T21:57:13.114Z,71.20
2018-12-07T21:59:42.097Z,70.10
2018-12-07T22:02:11.366Z,69.40
2018-12-07T22:04:40.090Z,68.70
2018-12-07T22:07:09.539Z,69.20
2018-12-07T22:09:38.731Z,68.60
2018-12-07T22:12:07.533Z,69.10
2018-12-07T22:14:35.894Z,70.00
2018-12-07T22:17:05.267Z,68.20
2018-12-07T22:19:33.718Z,69.40
2018-12-07T22:22:02.229Z,67.10
2018-12-07T22:24:31.053Z,67.90
2018-12-07T22:27:00.934Z,68.40
2018-12-07T22:29:29.744Z,70.00
2018-12-07T22:31:58.784Z,70.90
2018-12-07T22:34:27.586Z,71.50
2018-12-07T22:36:56.962Z,71.80
2018-12-07T22:39:26.081Z,69.30
2018-12-07T22:41:54.651Z,69.40
2018-12-07T22:44:23.408Z,68.40
2018-12-07T22:46:53.322Z,65.50
2018-12-07T22:49:22.080Z,66.30
2018-12-07T22:51:51.906Z,66.20
2018-12-07T22:54:21.054Z,64.70
2018-12-07T22:59:18.077Z,63.10
2018-12-07T23:01:46.870Z,63.20
2018-12-07T23:04:15.196Z,63.80
2018-12-07T23:06:43.565Z,63.10
2018-12-07T23:09:11.845Z,63.20
2018-12-07T23:11:40.129Z,63.60
2018-12-07T23:14:08.425Z,62.80
2018-12-07T23:16:37.382Z,62.90
2018-12-07T23:19:05.742Z,63.50
2018-12-07T23:21:34.311Z,61.50
2018-12-07T23:24:02.691Z,62.10
2018-12-07T23:26:33.862Z,60.70
2018-12-07T23:29:07.600Z,61.40
2018-12-07T23:31:38.092Z,61.90
2018-12-07T23:34:08.626Z,61.10
2018-12-07T23:36:38.842Z,60.30
2018-12-07T23:39:09.055Z,61.30
2018-12-07T23:41:37.773Z,61.30
2018-12-07T23:44:06.201Z,59.90
2018-12-07T23:46:35.288Z,59.40
2018-12-07T23:49:04.923Z,59.70
2018-12-07T23:51:35.621Z,59.90
2018-12-07T23:54:04.137Z,59.70
2018-12-07T23:56:32.741Z,59.70
2018-12-07T23:59:01.322Z,60.20
